Time;durP1;ratioP1;P1;durP2;ratioP2;P2;SDS_P1;SDS_P2;PMS_P1;PMS_P2;Temp;Humidity;BMP_temperature;BMP_pressure;BME280_temperature;BME280_humidity;BME280_pressure;Samples;Min_cycle;Max_cycle;Signal;HPM_P1;HPM_P2
2023/03/06 00:01:18;;;;;;;108.75;50.78;;;;;;;18.12;62.64;99141.31;5088044;28;20081;-61
2023/03/06 00:04:07;;;;;;;113.00;50.22;;;;;;;18.10;62.90;99151.44;5097053;28;20058;-62
2023/03/06 00:06:50;;;;;;;104.90;51.55;;;;;;;18.02;62.82;99152.56;5094202;28;20040;-62
2023/03/06 00:09:45;;;;;;;107.40;48.40;;;;;;;18.00;63.76;99156.53;5054297;28;20056;-63
2023/03/06 00:12:21;;;;;;;114.95;51.13;;;;;;;17.86;63.93;99153.25;5073115;28;20098;-63
2023/03/06 00:15:11;;;;;;;108.73;51.73;;;;;;;17.90;64.73;99174.00;5070533;28;20068;-62
2023/03/06 00:17:54;;;;;;;111.07;52.00;;;;;;;17.85;64.85;99175.72;5068590;28;20059;-62
2023/03/06 00:20:44;;;;;;;111.55;51.25;;;;;;;17.79;65.21;99165.94;5056544;28;20044;-61
2023/03/06 00:23:26;;;;;;;99.57;51.03;;;;;;;17.80;65.33;99171.03;5059497;28;20074;-62
2023/03/06 00:26:21;;;;;;;103.32;49.70;;;;;;;17.73;65.83;99180.22;5058772;28;20092;-62
2023/03/06 00:28:57;;;;;;;109.38;52.60;;;;;;;17.69;66.21;99173.69;5066366;28;20052;-61
2023/03/06 00:31:46;;;;;;;112.07;52.55;;;;;;;17.57;66.01;99180.81;5063447;28;20048;-62
2023/03/06 00:34:29;;;;;;;106.28;50.72;;;;;;;17.49;66.33;99176.56;5065007;28;20048;-62
2023/03/06 00:37:25;;;;;;;110.05;51.45;;;;;;;17.42;66.61;99182.03;5047018;28;20761;-62
2023/03/06 00:40:01;;;;;;;111.10;49.88;;;;;;;17.35;66.01;99175.09;5049476;28;20865;-62
2023/03/06 00:42:56;;;;;;;103.10;49.40;;;;;;;17.36;66.71;99182.09;5056651;28;20048;-61
2023/03/06 00:45:32;;;;;;;122.40;51.20;;;;;;;17.39;66.35;99187.03;5064124;28;20059;-62
2023/03/06 00:48:27;;;;;;;115.60;53.03;;;;;;;17.38;66.49;99180.03;5045313;28;20086;-62
2023/03/06 00:51:03;;;;;;;111.70;53.40;;;;;;;17.32;66.61;99192.44;5046431;28;20300;-62
2023/03/06 00:54:00;;;;;;;105.97;50.53;;;;;;;17.24;67.01;99198.09;5059468;28;20427;-62
2023/03/06 00:56:36;;;;;;;111.82;50.15;;;;;;;17.29;67.42;99203.59;5064486;28;20044;-63
2023/03/06 00:59:31;;;;;;;111.10;52.17;;;;;;;17.24;67.65;99207.97;5063493;28;20110;-62
2023/03/06 01:02:07;;;;;;;104.18;51.25;;;;;;;17.30;67.78;99197.22;5042572;28;20041;-61
2023/03/06 01:04:56;;;;;;;117.90;55.57;;;;;;;17.25;67.54;99202.41;5054502;28;20579;-61
2023/03/06 01:07:52;;;;;;;111.88;53.60;;;;;;;17.28;67.86;99199.28;5067551;28;20146;-62
2023/03/06 01:10:41;;;;;;;108.05;55.03;;;;;;;17.27;68.01;99204.84;5083016;28;20458;-62
2023/03/06 01:13:30;;;;;;;127.63;62.33;;;;;;;17.27;67.64;99205.66;5070979;28;20047;-61
2023/03/06 01:16:27;;;;;;;140.57;67.35;;;;;;;17.40;67.51;99210.06;5089310;28;20043;-61
2023/03/06 01:19:03;;;;;;;153.40;73.68;;;;;;;17.50;66.35;99215.72;5072358;28;20044;-60
2023/03/06 01:21:53;;;;;;;157.23;75.47;;;;;;;17.58;65.58;99211.91;5086170;28;20539;-61
2023/03/06 01:24:42;;;;;;;132.43;69.30;;;;;;;17.66;65.21;99207.06;5088638;28;20052;-60
2023/03/06 01:27:24;;;;;;;148.65;68.85;;;;;;;17.67;64.92;99221.28;5065557;28;20044;-61
2023/03/06 01:30:17;;;;;;;138.15;68.60;;;;;;;17.70;65.27;99223.53;5084003;28;20051;-61
2023/03/06 01:33:00;;;;;;;119.68;59.35;;;;;;;18.03;65.51;99231.13;5090744;28;20117;-61
2023/03/06 01:35:49;;;;;;;127.32;63.47;;;;;;;17.86;64.85;99228.28;5080498;28;20043;-60
2023/03/06 01:38:31;;;;;;;127.43;63.15;;;;;;;17.87;64.45;99233.41;5066486;28;20075;-61
2023/03/06 01:41:21;;;;;;;129.35;63.90;;;;;;;18.11;64.43;99234.31;5084150;28;20048;-61
2023/03/06 01:44:03;;;;;;;116.00;57.03;;;;;;;17.95;63.97;99237.63;5060489;28;20202;-61
2023/03/06 01:46:53;;;;;;;108.30;55.67;;;;;;;17.87;64.53;99238.78;5052334;28;20048;-61
2023/03/06 01:49:39;;;;;;;111.95;56.60;;;;;;;18.00;64.68;99247.66;5046224;28;20040;-61
2023/03/06 01:52:34;;;;;;;95.95;49.38;;;;;;;17.90;64.34;99243.66;5083078;28;20748;-61
2023/03/06 01:55:21;;;;;;;105.30;52.35;;;;;;;17.91;64.68;99245.31;5066343;28;20073;-60
2023/03/06 01:58:16;;;;;;;88.30;48.53;;;;;;;17.98;64.97;99245.22;5047741;28;20055;-62
2023/03/06 02:01:22;;;;;;;88.95;49.40;;;;;;;18.01;64.78;99246.63;5051758;28;20463;-59
2023/03/06 02:04:11;;;;;;;92.40;47.38;;;;;;;18.11;66.71;99253.06;5068126;28;20070;-61
2023/03/06 02:07:03;;;;;;;78.07;48.72;;;;;;;18.09;65.10;99243.63;5053286;28;20157;-61
2023/03/06 02:09:58;;;;;;;79.32;47.33;;;;;;;18.21;64.44;99242.63;5078375;28;20048;-61
2023/03/06 02:12:36;;;;;;;82.75;46.83;;;;;;;18.32;65.70;99249.88;5081691;28;20052;-62
2023/03/06 02:15:28;;;;;;;76.65;46.97;;;;;;;18.35;64.02;99252.13;5069404;28;20048;-62
2023/03/06 02:18:17;;;;;;;80.55;46.00;;;;;;;18.42;64.80;99252.81;5056990;28;20535;-62
2023/03/06 02:21:12;;;;;;;70.97;46.60;;;;;;;18.59;63.85;99247.63;5049829;28;20053;-61
2023/03/06 02:24:10;;;;;;;73.75;44.63;;;;;;;18.62;64.22;99246.38;5075490;28;20054;-62
2023/03/06 02:27:02;;;;;;;69.82;46.30;;;;;;;18.81;63.31;99245.22;5082116;28;20576;-62
2023/03/06 02:29:45;;;;;;;68.68;44.15;;;;;;;19.10;63.04;99246.16;5069494;28;20132;-62
2023/03/06 02:32:34;;;;;;;67.55;41.88;;;;;;;19.86;60.90;99243.25;5049319;28;20052;-62
2023/03/06 02:35:29;;;;;;;64.63;41.63;;;;;;;20.23;59.05;99253.59;5096983;28;20090;-61
2023/03/06 02:38:21;;;;;;;79.13;43.38;;;;;;;20.36;59.59;99256.03;5074703;28;20079;-62
2023/03/06 02:41:14;;;;;;;74.05;41.55;;;;;;;20.96;55.73;99262.44;5031991;28;20044;-62
2023/03/06 02:43:56;;;;;;;58.88;39.33;;;;;;;21.93;54.90;99264.63;5067153;28;20510;-62
2023/03/06 02:46:45;;;;;;;63.25;38.40;;;;;;;22.33;54.92;99267.75;5076454;28;20051;-62
2023/03/06 02:49:27;;;;;;;74.57;40.88;;;;;;;23.07;51.27;99267.88;5068551;28;20055;-62
2023/03/06 02:52:17;;;;;;;61.08;37.35;;;;;;;24.04;48.68;99264.59;5106908;28;20761;-61
2023/03/06 02:54:59;;;;;;;66.83;38.13;;;;;;;24.01;46.93;99267.84;5103459;28;20063;-61
2023/03/06 02:57:48;;;;;;;70.43;37.30;;;;;;;24.27;47.55;99268.75;5076974;28;20047;-61
2023/03/06 03:00:37;;;;;;;61.03;37.20;;;;;;;24.67;44.95;99276.13;5071253;28;20542;-62
2023/03/06 03:03:27;;;;;;;65.65;36.42;;;;;;;24.85;44.74;99285.59;5068140;28;20138;-62
2023/03/06 03:06:12;;;;;;;61.65;38.40;;;;;;;25.27;45.29;99283.44;5086337;28;20040;-61
2023/03/06 03:09:07;;;;;;;69.40;38.45;;;;;;;25.02;44.26;99286.19;5069774;28;20071;-61
2023/03/06 03:11:44;;;;;;;72.28;40.40;;;;;;;24.49;45.40;99282.88;5104876;28;20043;-62
2023/03/06 03:14:33;;;;;;;81.55;39.33;;;;;;;24.15;46.05;99281.69;5070318;28;20051;-62
2023/03/06 03:17:22;;;;;;;77.70;38.13;;;;;;;24.20;47.21;99291.75;5086477;28;20586;-61
2023/03/06 03:20:06;;;;;;;72.00;39.88;;;;;;;24.66;46.59;99293.44;5084920;28;20040;-61
2023/03/06 03:22:58;;;;;;;79.65;41.03;;;;;;;24.88;46.08;99291.31;5081783;28;20063;-62
2023/03/06 03:25:40;;;;;;;71.72;40.30;;;;;;;24.95;44.21;99294.59;5080856;28;20105;-63
2023/03/06 03:28:29;;;;;;;62.67;35.95;;;;;;;25.37;44.20;99298.88;5085810;28;20043;-61
2023/03/06 03:31:20;;;;;;;76.07;39.67;;;;;;;25.96;41.97;99299.00;5066798;28;20060;-61
2023/03/06 03:34:10;;;;;;;73.35;40.58;;;;;;;25.99;41.76;99300.34;5073715;28;20447;-62
2023/03/06 03:36:53;;;;;;;72.97;40.60;;;;;;;25.45;44.10;99311.88;5086534;28;20052;-62
2023/03/06 03:39:44;;;;;;;84.97;39.80;;;;;;;25.41;43.97;99311.59;5085082;28;20048;-62
2023/03/06 03:42:27;;;;;;;69.75;39.53;;;;;;;25.46;41.41;99313.50;5055864;28;20124;-62
2023/03/06 03:45:17;;;;;;;78.25;39.72;;;;;;;25.48;41.95;99319.47;5061931;28;20054;-61
2023/03/06 03:48:14;;;;;;;73.72;38.97;;;;;;;25.58;44.79;99313.25;5061749;28;20048;-63
2023/03/06 03:50:50;;;;;;;73.65;38.90;;;;;;;25.36;43.19;99327.06;5076170;28;20131;-63
2023/03/06 03:53:49;;;;;;;80.35;39.78;;;;;;;25.64;43.42;99328.41;5071806;28;20051;-62
2023/03/06 03:56:28;;;;;;;75.78;40.15;;;;;;;26.07;42.12;99332.34;5070616;28;20078;-64
2023/03/06 03:59:23;;;;;;;75.15;41.33;;;;;;;25.74;41.87;99331.91;5076819;28;20059;-64
2023/03/06 04:02:31;;;;;;;83.93;44.92;;;;;;;26.53;41.47;99331.03;5082714;28;20051;-63
2023/03/06 04:05:32;;;;;;;73.60;39.65;;;;;;;27.25;39.79;99338.41;5062387;28;20492;-62
2023/03/06 04:08:23;;;;;;;75.50;41.38;;;;;;;27.44;38.44;99337.72;5083321;28;20067;-63
2023/03/06 04:11:06;;;;;;;73.10;40.17;;;;;;;26.26;40.12;99341.50;5067271;28;20051;-61
2023/03/06 04:13:55;;;;;;;82.18;40.13;;;;;;;26.38;39.70;99342.81;5061301;28;20117;-62
2023/03/06 04:16:38;;;;;;;77.00;42.17;;;;;;;26.99;41.39;99338.91;5074865;28;20052;-61
2023/03/06 04:19:27;;;;;;;74.15;40.08;;;;;;;28.13;37.60;99346.25;5069113;28;20871;-61
2023/03/06 04:22:18;;;;;;;90.28;41.63;;;;;;;28.78;36.63;99337.44;5065569;28;20071;-63
2023/03/06 04:25:01;;;;;;;;;;;;;;;28.35;36.27;99336.69;5074667;28;20047;-61
2023/03/06 04:27:50;;;;;;;83.40;40.08;;;;;;;28.19;37.75;99336.09;5056400;28;20346;-62
2023/03/06 04:30:33;;;;;;;57.67;30.88;;;;;;;29.14;36.79;99335.78;5054440;28;20106;-63
2023/03/06 04:33:23;;;;;;;78.43;41.38;;;;;;;29.03;34.18;99337.84;5048731;28;20059;-64
2023/03/06 04:36:06;;;;;;;53.58;31.63;;;;;;;29.31;36.79;99335.25;5075128;28;20662;-64
2023/03/06 04:39:03;;;;;;;65.03;31.73;;;;;;;29.10;35.40;99336.69;5064047;28;20474;-62
2023/03/06 04:41:40;;;;;;;57.25;32.08;;;;;;;29.05;38.83;99342.22;5066023;28;20152;-66
2023/03/06 04:44:29;;;;;;;53.67;33.45;;;;;;;28.92;36.66;99333.69;5074187;28;20052;-66
2023/03/06 04:47:11;;;;;;;59.50;31.35;;;;;;;28.83;36.96;99340.91;5080078;28;20062;-64
2023/03/06 04:50:06;;;;;;;47.25;30.92;;;;;;;28.81;36.84;99345.06;5081852;28;20051;-64
2023/03/06 04:52:42;;;;;;;59.88;28.85;;;;;;;28.60;39.94;99341.78;5074361;28;20052;-66
2023/03/06 04:55:37;;;;;;;;;;;;;;;28.69;35.37;99339.19;5093620;28;20499;-62
2023/03/06 04:58:13;;;;;;;53.95;31.00;;;;;;;28.77;36.61;99344.00;5083142;28;19931;-61
2023/03/06 05:01:09;;;;;;;53.85;33.83;;;;;;;28.65;35.39;99340.91;5084669;28;20047;-61
2023/03/06 05:03:45;;;;;;;48.30;28.27;;;;;;;28.99;39.31;99355.13;5082542;28;20070;-61
2023/03/06 05:06:40;;;;;;;59.70;34.08;;;;;;;28.93;38.42;99346.22;5076072;28;20141;-61
2023/03/06 05:09:22;;;;;;;51.53;27.77;;;;;;;29.16;32.98;99341.75;5073302;28;20426;-61
2023/03/06 05:12:11;;;;;;;47.95;27.95;;;;;;;29.17;35.21;99343.34;5077480;28;20048;-62
2023/03/06 05:14:53;;;;;;;48.65;27.58;;;;;;;29.13;37.58;99349.72;5078088;28;20232;-61
2023/03/06 05:17:43;;;;;;;45.35;26.20;;;;;;;29.33;37.85;99344.78;5079465;28;20843;-62
2023/03/06 05:20:27;;;;;;;55.78;27.83;;;;;;;29.51;34.40;99336.81;5065734;28;20563;-62
2023/03/06 05:23:16;;;;;;;45.55;26.30;;;;;;;29.47;34.42;99335.81;5104609;28;20040;-61
2023/03/06 05:25:58;;;;;;;49.47;28.95;;;;;;;29.25;33.67;99334.50;5100989;28;20074;-62
2023/03/06 05:28:47;;;;;;;51.50;28.40;;;;;;;29.29;33.20;99334.72;5083703;28;20541;-62
2023/03/06 05:31:29;;;;;;;43.80;26.38;;;;;;;29.38;30.83;99333.75;5073204;28;20048;-62
2023/03/06 05:34:20;;;;;;;51.45;26.67;;;;;;;29.48;36.13;99334.66;5083711;28;20523;-62
2023/03/06 05:37:02;;;;;;;48.28;24.52;;;;;;;29.46;35.10;99329.53;5088163;28;20059;-61
2023/03/06 05:39:51;;;;;;;40.47;25.27;;;;;;;29.34;36.16;99329.22;5083016;28;20047;-61
2023/03/06 05:42:33;;;;;;;36.90;23.83;;;;;;;29.51;33.35;99326.72;5087535;28;20059;-62
2023/03/06 05:45:22;;;;;;;38.85;24.75;;;;;;;29.49;33.17;99328.09;5082748;28;20046;-62
2023/03/06 05:48:05;;;;;;;43.53;23.35;;;;;;;29.22;33.24;99321.44;5089166;28;20086;-61
2023/03/06 05:51:01;;;;;;;64.82;26.30;;;;;;;29.45;36.77;99317.78;5081546;28;20058;-58
2023/03/06 05:53:43;;;;;;;46.78;23.13;;;;;;;29.38;31.91;99325.56;5079486;28;20054;-59
2023/03/06 05:56:32;;;;;;;51.78;21.85;;;;;;;29.82;33.58;99318.75;5094090;28;20059;-59
2023/03/06 05:59:14;;;;;;;51.22;21.60;;;;;;;29.91;34.61;99319.69;5091248;28;20048;-62
2023/03/06 06:02:04;;;;;;;49.35;23.35;;;;;;;29.68;36.04;99321.47;5088308;28;20048;-60
2023/03/06 06:04:59;;;;;;;46.55;21.75;;;;;;;29.25;35.52;99315.41;5100736;28;20093;-61
2023/03/06 06:07:35;;;;;;;38.90;17.23;;;;;;;29.62;33.88;99309.00;5096141;28;20700;-60
2023/03/06 06:10:31;;;;;;;29.70;17.17;;;;;;;29.82;30.05;99310.53;5104288;28;20044;-62
2023/03/06 06:13:07;;;;;;;36.97;18.77;;;;;;;29.74;35.09;99305.78;5077916;28;20670;-64
2023/03/06 06:15:56;;;;;;;40.65;18.83;;;;;;;29.77;34.32;99313.38;5081271;28;20367;-60
2023/03/06 06:18:45;;;;;;;30.02;12.90;;;;;;;29.58;32.03;99308.00;5067208;28;20052;-60
2023/03/06 06:21:34;;;;;;;24.73;12.07;;;;;;;29.85;29.92;99299.81;5073123;28;20048;-61
2023/03/06 06:24:16;;;;;;;22.20;11.75;;;;;;;29.80;29.65;99286.25;5092991;28;20047;-59
2023/03/06 06:27:06;;;;;;;22.48;11.48;;;;;;;29.89;30.75;99295.38;5087351;28;20468;-60
2023/03/06 06:29:48;;;;;;;16.90;9.82;;;;;;;30.06;28.60;99293.94;5077040;28;20106;-61
2023/03/06 06:32:37;;;;;;;20.45;11.10;;;;;;;30.13;28.75;99286.97;5082733;28;20426;-61
2023/03/06 06:35:20;;;;;;;26.60;10.10;;;;;;;30.03;27.75;99292.66;5097837;28;20086;-61
2023/03/06 06:38:15;;;;;;;16.25;9.85;;;;;;;29.99;26.83;99288.09;5083592;28;20071;-62
2023/03/06 06:40:50;;;;;;;21.70;9.65;;;;;;;30.05;26.79;99290.41;5092871;28;20044;-62
2023/03/06 06:43:59;;;;;;;21.88;8.98;;;;;;;29.94;27.23;99282.72;5089043;28;20044;-64
2023/03/06 06:46:50;;;;;;;16.15;9.80;;;;;;;30.13;28.37;99275.22;5091883;28;20048;-64
2023/03/06 06:49:52;;;;;;;;;;;;;;;30.06;31.18;99270.16;5093741;28;20506;-65
2023/03/06 06:52:41;;;;;;;17.35;9.30;;;;;;;29.99;28.36;99271.72;5098116;28;19988;-64
2023/03/06 06:55:23;;;;;;;17.58;9.00;;;;;;;30.01;26.93;99259.34;5106889;28;20086;-64
2023/03/06 06:58:12;;;;;;;21.65;9.48;;;;;;;30.13;30.18;99264.31;5088134;28;20379;-63
2023/03/06 07:00:54;;;;;;;24.48;11.13;;;;;;;29.92;33.39;99261.19;5082402;28;20044;-64
2023/03/06 07:03:43;;;;;;;20.23;10.82;;;;;;;29.92;29.27;99246.75;5090812;28;20466;-64
2023/03/06 07:06:38;;;;;;;16.35;10.45;;;;;;;29.89;29.94;99250.88;5069088;28;20519;-63
2023/03/06 07:09:21;;;;;;;25.13;11.85;;;;;;;30.09;28.34;99235.97;5074157;28;20174;-63
2023/03/06 07:12:10;;;;;;;23.73;12.07;;;;;;;29.81;27.80;99233.25;5086843;28;20136;-65
2023/03/06 07:15:05;;;;;;;20.65;12.50;;;;;;;30.11;28.49;99234.53;5086842;28;20074;-65
2023/03/06 07:17:42;;;;;;;25.95;10.77;;;;;;;29.81;27.46;99233.25;5086978;28;20058;-61
2023/03/06 07:20:37;;;;;;;27.27;12.38;;;;;;;30.06;30.01;99226.44;5078803;28;20077;-63
2023/03/06 07:23:13;;;;;;;23.92;12.27;;;;;;;29.91;28.04;99221.34;5078195;28;20044;-63
2023/03/06 07:26:02;;;;;;;27.00;11.20;;;;;;;30.10;29.07;99224.72;5065926;28;20066;-62
2023/03/06 07:28:54;;;;;;;25.35;12.00;;;;;;;29.94;30.86;99217.19;5093855;28;20535;-62
2023/03/06 07:31:36;;;;;;;31.33;11.75;;;;;;;29.84;29.05;99208.06;5079845;28;20058;-62
2023/03/06 07:34:25;;;;;;;25.08;12.52;;;;;;;30.05;28.93;99211.16;5081515;28;20044;-63
2023/03/06 07:37:09;;;;;;;28.85;13.57;;;;;;;29.93;27.09;99199.97;5066432;28;20163;-63
2023/03/06 07:39:58;;;;;;;22.58;11.15;;;;;;;30.24;30.14;99203.63;5060142;28;20683;-63
2023/03/06 07:42:40;;;;;;;17.15;9.75;;;;;;;30.15;27.58;99199.19;5081594;28;20056;-62
2023/03/06 07:45:33;;;;;;;15.45;9.65;;;;;;;30.04;26.49;99186.91;5080664;28;20072;-63
2023/03/06 07:48:15;;;;;;;22.50;10.43;;;;;;;30.04;29.77;99181.44;5085556;28;20125;-61
2023/03/06 07:51:13;;;;;;;19.25;11.40;;;;;;;29.99;30.67;99182.38;5085883;28;20117;-61
2023/03/06 07:54:09;;;;;;;23.55;12.25;;;;;;;29.69;30.16;99174.81;5071806;28;20043;-62
2023/03/06 07:56:45;;;;;;;23.63;11.05;;;;;;;29.92;31.20;99167.53;5074271;28;20584;-61
2023/03/06 07:59:40;;;;;;;20.05;10.98;;;;;;;30.00;29.90;99159.41;5084624;28;20490;-61
2023/03/06 08:02:16;;;;;;;23.88;10.38;;;;;;;30.15;30.66;99159.03;5085426;28;20047;-62
2023/03/06 08:05:13;;;;;;;26.48;9.95;;;;;;;29.92;31.01;99143.72;5095524;28;20048;-62
2023/03/06 08:07:48;;;;;;;16.10;8.32;;;;;;;29.69;28.21;99148.31;5085849;28;20075;-62
2023/03/06 08:10:43;;;;;;;17.08;9.18;;;;;;;29.62;26.96;99141.66;5065249;28;20105;-60
2023/03/06 08:13:38;;;;;;;16.10;7.43;;;;;;;29.76;28.75;99139.69;5065372;28;20044;-61
2023/03/06 08:16:14;;;;;;;15.50;7.68;;;;;;;29.78;26.61;99124.63;5062109;28;20083;-61
2023/03/06 08:19:03;;;;;;;14.18;8.27;;;;;;;29.47;31.26;99125.63;5055569;28;20048;-61
2023/03/06 08:21:45;;;;;;;19.85;7.50;;;;;;;29.56;29.02;99123.78;5056287;28;20048;-61
2023/03/06 08:24:40;;;;;;;23.52;7.82;;;;;;;29.63;29.94;99121.44;5056607;28;20052;-61
2023/03/06 08:27:15;;;;;;;13.75;6.25;;;;;;;29.53;27.49;99111.53;5057827;28;20377;-62
2023/03/06 08:30:05;;;;;;;17.63;7.50;;;;;;;29.58;28.67;99110.63;5061366;28;20068;-62
2023/03/06 08:32:48;;;;;;;14.93;7.60;;;;;;;29.45;28.94;99104.06;5050027;28;20048;-61
2023/03/06 08:35:37;;;;;;;10.43;6.15;;;;;;;29.49;28.54;99109.72;5053571;28;20139;-61
2023/03/06 08:38:19;;;;;;;11.35;5.35;;;;;;;29.38;25.85;99098.25;5055841;28;20052;-60
2023/03/06 08:41:14;;;;;;;10.77;6.80;;;;;;;29.35;28.80;99099.63;5055116;28;20091;-63
2023/03/06 08:43:50;;;;;;;15.38;7.75;;;;;;;29.49;28.34;99096.06;5047984;28;20045;-62
2023/03/06 08:46:40;;;;;;;12.68;6.30;;;;;;;29.35;26.92;99093.38;5049943;28;20527;-63
2023/03/06 08:49:29;;;;;;;18.65;7.05;;;;;;;29.34;28.80;99095.28;5060325;28;20090;-62
2023/03/06 08:52:11;;;;;;;13.25;7.47;;;;;;;29.23;29.09;99082.97;5062583;28;20364;-62
2023/03/06 08:55:02;;;;;;;14.68;6.28;;;;;;;29.21;28.00;99076.19;5063687;28;20102;-61
2023/03/06 08:57:45;;;;;;;13.20;4.97;;;;;;;29.29;27.18;99080.94;5063185;28;20060;-61
2023/03/06 09:00:34;;;;;;;8.73;5.53;;;;;;;29.19;26.05;99073.78;5063212;28;20045;-61
2023/03/06 09:03:16;;;;;;;6.80;5.13;;;;;;;29.20;28.40;99071.84;5051860;28;20067;-61
2023/03/06 09:06:05;;;;;;;14.73;6.00;;;;;;;29.23;28.46;99066.59;5064297;28;20072;-62
2023/03/06 09:08:54;;;;;;;16.85;7.07;;;;;;;29.23;26.93;99066.59;5067069;28;20110;-60
2023/03/06 09:11:43;;;;;;;15.55;6.30;;;;;;;29.12;28.62;99057.00;5084460;28;20048;-61
2023/03/06 09:14:32;;;;;;;20.08;6.55;;;;;;;28.99;30.20;99049.63;5075119;28;20285;-61
2023/03/06 09:17:14;;;;;;;12.82;5.30;;;;;;;28.99;26.08;99049.63;5074960;28;20048;-61
2023/03/06 09:20:04;;;;;;;19.55;6.47;;;;;;;28.81;28.44;99040.44;5077142;28;20048;-61
2023/03/06 09:22:46;;;;;;;16.80;6.68;;;;;;;28.73;28.27;99043.88;5075845;28;20040;-61
2023/03/06 09:25:35;;;;;;;12.15;6.13;;;;;;;28.71;29.69;99032.50;5079478;28;20063;-60
2023/03/06 09:28:17;;;;;;;15.77;6.20;;;;;;;28.66;30.62;99029.81;5074967;28;20558;-62
2023/03/06 09:31:06;;;;;;;11.95;5.63;;;;;;;28.65;29.62;99020.03;5076896;28;20040;-61
2023/03/06 09:33:48;;;;;;;12.18;5.95;;;;;;;28.51;30.35;99019.22;5074630;28;20052;-61
2023/03/06 09:36:38;;;;;;;13.80;6.25;;;;;;;28.49;30.30;99013.28;5072781;28;20056;-61
2023/03/06 09:39:37;;;;;;;14.80;7.35;;;;;;;28.24;30.81;99009.09;5073334;28;20425;-62
2023/03/06 09:42:28;;;;;;;16.27;5.75;;;;;;;28.35;29.33;99010.53;5074598;28;20080;-61
2023/03/06 09:45:12;;;;;;;9.82;4.97;;;;;;;28.45;28.93;99004.91;5072502;28;20175;-61
2023/03/06 09:48:12;;;;;;;9.40;5.13;;;;;;;28.54;29.83;99005.00;5078015;28;20044;-60
2023/03/06 09:50:59;;;;;;;6.10;3.63;;;;;;;28.57;26.32;99002.47;5076538;28;20513;-62
2023/03/06 09:54:03;;;;;;;11.15;3.95;;;;;;;28.59;26.01;98997.50;5084679;28;20067;-61
2023/03/06 09:56:49;;;;;;;8.23;3.10;;;;;;;28.62;25.68;98996.09;5083579;28;20036;-61
2023/03/06 09:59:39;;;;;;;7.15;3.55;;;;;;;28.54;27.90;98992.19;5084253;28;20066;-61
2023/03/06 10:02:45;;;;;;;7.00;4.63;;;;;;;28.50;28.52;98985.69;5084248;28;20055;-61
2023/03/06 10:05:56;;;;;;;14.97;5.07;;;;;;;28.40;30.70;98985.09;5102992;28;20075;-61
2023/03/06 10:09:06;;;;;;;12.63;5.13;;;;;;;28.31;29.85;98989.63;5095204;28;20045;-61
2023/03/06 10:12:13;;;;;;;8.98;3.60;;;;;;;28.38;28.86;98985.41;5094642;28;20052;-61
2023/03/06 10:15:19;;;;;;;11.00;4.90;;;;;;;28.44;27.09;98980.66;5084192;28;20135;-62
2023/03/06 10:18:17;;;;;;;8.20;2.88;;;;;;;28.44;24.07;98977.94;5089417;28;20044;-63
2023/03/06 10:21:02;;;;;;;7.03;3.03;;;;;;;28.42;25.58;98980.13;5107278;28;20052;-61
2023/03/06 10:24:33;;;;;;;4.50;3.05;;;;;;;28.38;25.64;98969.03;5066985;28;20044;-61
2023/03/06 10:27:30;;;;;;;12.15;3.72;;;;;;;28.41;26.99;98970.38;5081958;28;20051;-61
2023/03/06 10:30:46;;;;;;;5.68;3.13;;;;;;;28.44;25.67;98973.28;5066800;28;20044;-60
2023/03/06 10:33:29;;;;;;;5.13;3.00;;;;;;;28.31;27.88;98968.66;5094976;28;20043;-61
2023/03/06 10:36:20;;;;;;;6.38;2.42;;;;;;;28.30;25.13;98963.50;5085280;28;20054;-61
2023/03/06 10:39:04;;;;;;;5.78;2.90;;;;;;;28.21;26.06;98960.66;5093746;28;20154;-61
2023/03/06 10:42:01;;;;;;;5.50;3.13;;;;;;;28.13;26.04;98956.72;5099145;28;20617;-61
2023/03/06 10:44:37;;;;;;;6.63;3.30;;;;;;;28.11;26.88;98955.41;5078057;28;20410;-61
2023/03/06 10:47:35;;;;;;;11.52;3.35;;;;;;;28.04;25.94;98950.31;5078122;28;20056;-61
2023/03/06 10:50:33;;;;;;;9.35;3.65;;;;;;;27.95;26.45;98941.22;5055585;28;20048;-61
2023/03/06 10:53:33;;;;;;;7.50;4.07;;;;;;;28.00;27.23;98946.59;5081415;28;20058;-61
2023/03/06 10:56:09;;;;;;;10.93;4.55;;;;;;;27.91;28.66;98940.22;5073099;28;20105;-62
2023/03/06 10:59:17;;;;;;;9.25;4.28;;;;;;;27.86;28.62;98937.59;5076829;28;20127;-61
2023/03/06 11:01:58;;;;;;;7.15;4.07;;;;;;;27.81;27.13;98934.94;5085595;28;20527;-61
2023/03/06 11:04:58;;;;;;;7.88;3.88;;;;;;;27.76;28.72;98934.22;5084874;28;20073;-62
2023/03/06 11:07:35;;;;;;;7.38;4.07;;;;;;;27.75;27.31;98935.34;5081262;28;20044;-61
2023/03/06 11:10:34;;;;;;;7.55;3.97;;;;;;;27.75;28.30;98929.91;5078285;28;20051;-64
2023/03/06 11:13:23;;;;;;;9.18;3.92;;;;;;;27.66;28.01;98927.84;5076994;28;20533;-67
2023/03/06 11:16:33;;;;;;;7.93;3.95;;;;;;;27.69;28.97;98927.28;5079895;28;20052;-69
2023/03/06 11:19:26;;;;;;;8.77;4.00;;;;;;;27.67;29.35;98920.50;5073900;28;20296;-66
2023/03/06 11:22:18;;;;;;;8.88;4.25;;;;;;;27.55;29.52;98929.13;5077340;28;20055;-66
2023/03/06 11:25:02;;;;;;;11.15;4.47;;;;;;;27.48;30.72;98920.56;5077597;28;20044;-68
2023/03/06 11:28:17;;;;;;;10.30;3.90;;;;;;;27.45;29.56;98925.72;5061168;28;20401;-66
2023/03/06 11:31:16;;;;;;;11.25;4.28;;;;;;;27.43;29.35;98917.88;5081314;28;20048;-68
2023/03/06 11:34:18;;;;;;;7.85;4.03;;;;;;;27.35;29.12;98917.75;5076080;28;20043;-68
2023/03/06 11:37:29;;;;;;;9.75;4.85;;;;;;;27.29;31.24;98921.66;5068434;28;20090;-61
2023/03/06 11:40:23;;;;;;;14.23;5.47;;;;;;;27.19;32.04;98918.00;5075174;28;20040;-62
2023/03/06 11:43:26;;;;;;;11.98;5.22;;;;;;;27.12;30.64;98922.19;5088896;28;20115;-61
2023/03/06 11:46:27;;;;;;;13.32;5.25;;;;;;;27.03;30.84;98915.78;5085891;28;20143;-63
2023/03/06 11:49:38;;;;;;;10.82;4.60;;;;;;;26.97;31.93;98919.69;5066735;28;20068;-61
2023/03/06 11:52:45;;;;;;;8.63;5.50;;;;;;;26.89;31.26;98920.34;5071078;28;20044;-60
2023/03/06 11:55:45;;;;;;;9.95;5.15;;;;;;;26.83;30.86;98917.66;5084565;28;20055;-61
2023/03/06 11:58:48;;;;;;;10.27;5.28;;;;;;;26.73;31.15;98920.50;5085529;28;20056;-60
2023/03/06 12:01:56;;;;;;;13.17;5.07;;;;;;;26.70;30.21;98918.38;5078894;28;20052;-60
2023/03/06 12:04:38;;;;;;;13.98;3.97;;;;;;;26.68;29.62;98919.78;5095839;28;20063;-60
2023/03/06 12:07:40;;;;;;;11.68;3.83;;;;;;;26.66;29.60;98920.06;5088359;28;20491;-61
2023/03/06 12:10:55;;;;;;;12.20;3.97;;;;;;;26.55;31.03;98918.59;5084352;28;20427;-61
2023/03/06 12:14:13;;;;;;;7.68;4.53;;;;;;;26.47;31.55;98916.50;5085452;28;20077;-61
2023/03/06 12:17:05;;;;;;;9.75;4.22;;;;;;;26.41;31.09;98912.25;5085278;28;20143;-60
2023/03/06 12:20:14;;;;;;;12.43;4.63;;;;;;;26.34;32.94;98911.78;5085026;28;20160;-61
2023/03/06 12:23:30;;;;;;;7.28;4.20;;;;;;;26.22;33.15;98903.25;5085634;28;20067;-61
2023/03/06 12:26:34;;;;;;;14.02;4.55;;;;;;;26.11;33.45;98907.94;5072412;28;20362;-61
2023/03/06 12:29:28;;;;;;;12.32;4.50;;;;;;;26.10;33.33;98908.25;5085093;28;20054;-60
2023/03/06 12:32:56;;;;;;;14.73;4.60;;;;;;;26.05;33.16;98916.44;5085028;28;20040;-61
2023/03/06 12:35:54;;;;;;;9.73;4.55;;;;;;;25.97;33.29;98912.47;5064893;28;20044;-60
2023/03/06 12:39:07;;;;;;;11.95;4.30;;;;;;;25.92;32.52;98921.47;5076799;28;20142;-61
2023/03/06 12:42:10;;;;;;;10.13;4.68;;;;;;;25.84;32.80;98919.38;5084343;28;20063;-60
2023/03/06 12:45:21;;;;;;;14.80;5.60;;;;;;;25.71;33.31;98925.44;5084737;28;20039;-61
2023/03/06 12:47:58;;;;;;;11.45;4.53;;;;;;;25.62;32.81;98923.66;5085523;28;20040;-61
2023/03/06 12:50:54;;;;;;;8.18;4.13;;;;;;;25.52;33.31;98927.22;5068930;28;20055;-60
2023/03/06 12:53:33;;;;;;;10.85;3.85;;;;;;;25.47;32.77;98930.78;5085643;28;20044;-61
2023/03/06 12:56:22;;;;;;;40.05;5.80;;;;;;;25.37;33.11;98927.34;5085106;28;20080;-61
2023/03/06 12:59:11;;;;;;;15.43;4.20;;;;;;;25.33;34.39;98929.00;5085896;28;20470;-61
2023/03/06 13:02:11;;;;;;;14.68;4.53;;;;;;;25.24;35.27;98933.41;5084848;28;20052;-61
2023/03/06 13:05:18;;;;;;;14.88;5.20;;;;;;;25.18;36.92;98929.91;5092359;28;20058;-61
2023/03/06 13:08:43;;;;;;;21.25;4.72;;;;;;;25.04;37.48;98937.88;5091614;28;20051;-62